sensor_id;sensor_type;location;lat;lon;timestamp;P1;durP1;ratioP1;P2;durP2;ratioP2
82635;SDS011;72317;37.280;-121.948;2023-11-18T00:01:32;2.38;;;0.90;;
82635;SDS011;72317;37.280;-121.948;2023-11-18T00:03:59;1.70;;;0.95;;
82635;SDS011;72317;37.280;-121.948;2023-11-18T00:06:25;2.92;;;0.82;;
82635;SDS011;72317;37.280;-121.948;2023-11-18T00:08:52;2.47;;;1.00;;
82635;SDS011;72317;37.280;-121.948;2023-11-18T00:11:18;2.05;;;0.90;;
82635;SDS011;72317;37.280;-121.948;2023-11-18T00:13:44;1.95;;;1.00;;
82635;SDS011;72317;37.280;-121.948;2023-11-18T00:16:10;1.17;;;0.90;;
82635;SDS011;72317;37.280;-121.948;2023-11-18T00:18:41;4.88;;;1.00;;
82635;SDS011;72317;37.280;-121.948;2023-11-18T00:21:07;3.33;;;0.90;;
82635;SDS011;72317;37.280;-121.948;2023-11-18T00:23:34;3.72;;;0.80;;
82635;SDS011;72317;37.280;-121.948;2023-11-18T00:26:00;1.20;;;0.90;;
82635;SDS011;72317;37.280;-121.948;2023-11-18T00:28:27;1.58;;;0.90;;
82635;SDS011;72317;37.280;-121.948;2023-11-18T00:30:53;5.65;;;1.33;;
82635;SDS011;72317;37.280;-121.948;2023-11-18T00:33:20;2.90;;;0.90;;
82635;SDS011;72317;37.280;-121.948;2023-11-18T00:35:46;1.73;;;0.80;;
82635;SDS011;72317;37.280;-121.948;2023-11-18T00:38:13;1.35;;;0.80;;
82635;SDS011;72317;37.280;-121.948;2023-11-18T00:40:39;3.78;;;0.90;;
82635;SDS011;72317;37.280;-121.948;2023-11-18T00:43:05;1.45;;;0.82;;
82635;SDS011;72317;37.280;-121.948;2023-11-18T00:45:31;0.85;;;0.80;;
82635;SDS011;72317;37.280;-121.948;2023-11-18T00:47:57;4.70;;;1.15;;
82635;SDS011;72317;37.280;-121.948;2023-11-18T00:50:23;2.88;;;0.80;;
82635;SDS011;72317;37.280;-121.948;2023-11-18T00:52:49;2.40;;;1.00;;
82635;SDS011;72317;37.280;-121.948;2023-11-18T00:55:16;2.45;;;0.70;;
82635;SDS011;72317;37.280;-121.948;2023-11-18T00:57:45;2.30;;;0.93;;
82635;SDS011;72317;37.280;-121.948;2023-11-18T01:00:14;2.45;;;0.93;;
82635;SDS011;72317;37.280;-121.948;2023-11-18T01:02:47;2.20;;;0.80;;
82635;SDS011;72317;37.280;-121.948;2023-11-18T01:05:15;3.08;;;1.20;;
82635;SDS011;72317;37.280;-121.948;2023-11-18T01:07:41;0.80;;;0.80;;
82635;SDS011;72317;37.280;-121.948;2023-11-18T01:10:08;4.97;;;1.10;;
82635;SDS011;72317;37.280;-121.948;2023-11-18T01:12:39;2.70;;;1.20;;
82635;SDS011;72317;37.280;-121.948;2023-11-18T01:15:06;3.28;;;1.23;;
82635;SDS011;72317;37.280;-121.948;2023-11-18T01:17:35;4.90;;;1.63;;
82635;SDS011;72317;37.280;-121.948;2023-11-18T01:20:02;5.00;;;1.48;;
82635;SDS011;72317;37.280;-121.948;2023-11-18T01:22:38;2.50;;;1.33;;
82635;SDS011;72317;37.280;-121.948;2023-11-18T01:25:06;2.55;;;1.40;;
82635;SDS011;72317;37.280;-121.948;2023-11-18T01:27:34;3.97;;;1.70;;
82635;SDS011;72317;37.280;-121.948;2023-11-18T01:30:00;3.28;;;1.38;;
82635;SDS011;72317;37.280;-121.948;2023-11-18T01:32:26;4.78;;;1.35;;
82635;SDS011;72317;37.280;-121.948;2023-11-18T01:34:55;2.92;;;1.30;;
82635;SDS011;72317;37.280;-121.948;2023-11-18T01:37:22;3.15;;;1.58;;
82635;SDS011;72317;37.280;-121.948;2023-11-18T01:39:49;2.65;;;1.50;;
82635;SDS011;72317;37.280;-121.948;2023-11-18T01:42:15;3.88;;;1.52;;
82635;SDS011;72317;37.280;-121.948;2023-11-18T01:44:42;4.43;;;1.60;;
82635;SDS011;72317;37.280;-121.948;2023-11-18T01:47:08;5.32;;;1.70;;
82635;SDS011;72317;37.280;-121.948;2023-11-18T01:49:38;4.55;;;1.80;;
82635;SDS011;72317;37.280;-121.948;2023-11-18T01:52:06;9.00;;;2.40;;
82635;SDS011;72317;37.280;-121.948;2023-11-18T01:54:34;14.57;;;3.60;;
82635;SDS011;72317;37.280;-121.948;2023-11-18T01:57:03;8.82;;;2.90;;
82635;SDS011;72317;37.280;-121.948;2023-11-18T01:59:31;8.05;;;2.90;;
82635;SDS011;72317;37.280;-121.948;2023-11-18T02:01:59;8.35;;;3.00;;
82635;SDS011;72317;37.280;-121.948;2023-11-18T02:04:27;8.27;;;2.63;;
82635;SDS011;72317;37.280;-121.948;2023-11-18T02:06:54;5.30;;;2.45;;
82635;SDS011;72317;37.280;-121.948;2023-11-18T02:09:21;4.05;;;2.10;;
82635;SDS011;72317;37.280;-121.948;2023-11-18T02:14:39;4.97;;;2.38;;
82635;SDS011;72317;37.280;-121.948;2023-11-18T02:17:08;7.25;;;2.97;;
82635;SDS011;72317;37.280;-121.948;2023-11-18T02:19:42;5.63;;;3.00;;
82635;SDS011;72317;37.280;-121.948;2023-11-18T02:22:11;5.07;;;2.78;;
82635;SDS011;72317;37.280;-121.948;2023-11-18T02:24:40;7.18;;;2.80;;
82635;SDS011;72317;37.280;-121.948;2023-11-18T02:27:08;6.85;;;3.00;;
82635;SDS011;72317;37.280;-121.948;2023-11-18T02:29:40;7.28;;;3.10;;
82635;SDS011;72317;37.280;-121.948;2023-11-18T02:32:33;5.78;;;2.50;;
82635;SDS011;72317;37.280;-121.948;2023-11-18T02:37:37;6.13;;;3.25;;
82635;SDS011;72317;37.280;-121.948;2023-11-18T02:40:07;6.03;;;3.05;;
82635;SDS011;72317;37.280;-121.948;2023-11-18T02:42:40;5.65;;;3.00;;
82635;SDS011;72317;37.280;-121.948;2023-11-18T02:45:10;7.28;;;2.70;;
82635;SDS011;72317;37.280;-121.948;2023-11-18T02:47:46;5.13;;;2.60;;
82635;SDS011;72317;37.280;-121.948;2023-11-18T02:50:14;6.25;;;2.97;;
82635;SDS011;72317;37.280;-121.948;2023-11-18T02:52:41;6.50;;;2.80;;
82635;SDS011;72317;37.280;-121.948;2023-11-18T02:55:08;5.55;;;2.80;;
82635;SDS011;72317;37.280;-121.948;2023-11-18T02:57:36;4.28;;;2.58;;
82635;SDS011;72317;37.280;-121.948;2023-11-18T03:00:04;4.53;;;2.80;;
82635;SDS011;72317;37.280;-121.948;2023-11-18T03:02:43;6.55;;;3.53;;
82635;SDS011;72317;37.280;-121.948;2023-11-18T03:05:09;5.05;;;3.00;;
82635;SDS011;72317;37.280;-121.948;2023-11-18T03:07:37;6.18;;;3.35;;
82635;SDS011;72317;37.280;-121.948;2023-11-18T03:10:04;6.15;;;3.03;;
82635;SDS011;72317;37.280;-121.948;2023-11-18T03:12:36;5.30;;;3.13;;
82635;SDS011;72317;37.280;-121.948;2023-11-18T03:15:07;4.88;;;2.67;;
82635;SDS011;72317;37.280;-121.948;2023-11-18T03:17:38;3.58;;;2.65;;
82635;SDS011;72317;37.280;-121.948;2023-11-18T03:20:05;4.32;;;2.65;;
82635;SDS011;72317;37.280;-121.948;2023-11-18T03:22:34;4.20;;;2.70;;
82635;SDS011;72317;37.280;-121.948;2023-11-18T03:25:01;2.78;;;2.50;;
82635;SDS011;72317;37.280;-121.948;2023-11-18T03:27:27;5.38;;;3.10;;
82635;SDS011;72317;37.280;-121.948;2023-11-18T03:29:55;5.05;;;2.50;;
82635;SDS011;72317;37.280;-121.948;2023-11-18T03:32:22;3.10;;;2.60;;
82635;SDS011;72317;37.280;-121.948;2023-11-18T03:34:48;3.42;;;2.50;;
82635;SDS011;72317;37.280;-121.948;2023-11-18T03:37:14;4.45;;;2.60;;
82635;SDS011;72317;37.280;-121.948;2023-11-18T03:39:40;5.22;;;2.70;;
82635;SDS011;72317;37.280;-121.948;2023-11-18T03:42:06;4.05;;;2.42;;
82635;SDS011;72317;37.280;-121.948;2023-11-18T03:44:33;3.75;;;2.60;;
82635;SDS011;72317;37.280;-121.948;2023-11-18T03:47:01;4.43;;;2.80;;
82635;SDS011;72317;37.280;-121.948;2023-11-18T03:49:28;3.30;;;3.00;;
82635;SDS011;72317;37.280;-121.948;2023-11-18T03:51:54;4.05;;;2.72;;
82635;SDS011;72317;37.280;-121.948;2023-11-18T03:54:20;4.00;;;3.00;;
82635;SDS011;72317;37.280;-121.948;2023-11-18T03:56:46;5.03;;;3.30;;
82635;SDS011;72317;37.280;-121.948;2023-11-18T03:59:12;4.82;;;3.20;;
82635;SDS011;72317;37.280;-121.948;2023-11-18T04:01:38;6.18;;;3.28;;
82635;SDS011;72317;37.280;-121.948;2023-11-18T04:04:06;5.88;;;3.55;;
82635;SDS011;72317;37.280;-121.948;2023-11-18T04:06:32;6.43;;;3.33;;
82635;SDS011;72317;37.280;-121.948;2023-11-18T04:08:58;7.63;;;4.20;;
82635;SDS011;72317;37.280;-121.948;2023-11-18T04:11:24;4.68;;;2.85;;
82635;SDS011;72317;37.280;-121.948;2023-11-18T04:13:50;5.43;;;2.50;;
82635;SDS011;72317;37.280;-121.948;2023-11-18T04:16:16;5.60;;;2.90;;
82635;SDS011;72317;37.280;-121.948;2023-11-18T04:18:44;3.83;;;2.15;;
82635;SDS011;72317;37.280;-121.948;2023-11-18T04:21:11;4.75;;;2.10;;
82635;SDS011;72317;37.280;-121.948;2023-11-18T04:23:38;2.60;;;1.83;;
82635;SDS011;72317;37.280;-121.948;2023-11-18T04:26:06;4.10;;;1.90;;
82635;SDS011;72317;37.280;-121.948;2023-11-18T04:28:36;3.67;;;2.30;;
82635;SDS011;72317;37.280;-121.948;2023-11-18T04:31:02;4.63;;;2.28;;
82635;SDS011;72317;37.280;-121.948;2023-11-18T04:33:30;5.65;;;2.40;;
82635;SDS011;72317;37.280;-121.948;2023-11-18T04:35:57;3.05;;;2.30;;
82635;SDS011;72317;37.280;-121.948;2023-11-18T04:38:23;2.33;;;2.10;;
82635;SDS011;72317;37.280;-121.948;2023-11-18T04:40:51;5.88;;;2.20;;
82635;SDS011;72317;37.280;-121.948;2023-11-18T04:43:19;3.60;;;2.00;;
82635;SDS011;72317;37.280;-121.948;2023-11-18T04:45:46;4.07;;;1.85;;
82635;SDS011;72317;37.280;-121.948;2023-11-18T04:48:12;4.50;;;1.90;;
82635;SDS011;72317;37.280;-121.948;2023-11-18T04:50:41;3.60;;;1.88;;
82635;SDS011;72317;37.280;-121.948;2023-11-18T04:53:08;2.20;;;1.92;;
82635;SDS011;72317;37.280;-121.948;2023-11-18T04:55:38;3.50;;;1.98;;
82635;SDS011;72317;37.280;-121.948;2023-11-18T04:58:05;2.88;;;1.90;;
82635;SDS011;72317;37.280;-121.948;2023-11-18T05:00:32;3.80;;;2.00;;
82635;SDS011;72317;37.280;-121.948;2023-11-18T05:02:58;3.28;;;1.90;;
82635;SDS011;72317;37.280;-121.948;2023-11-18T05:05:25;3.58;;;1.80;;
82635;SDS011;72317;37.280;-121.948;2023-11-18T05:07:51;2.55;;;1.80;;
82635;SDS011;72317;37.280;-121.948;2023-11-18T05:10:17;3.35;;;1.38;;
82635;SDS011;72317;37.280;-121.948;2023-11-18T05:12:44;4.55;;;1.40;;
82635;SDS011;72317;37.280;-121.948;2023-11-18T05:15:10;3.38;;;1.67;;
82635;SDS011;72317;37.280;-121.948;2023-11-18T05:17:36;3.33;;;1.60;;
82635;SDS011;72317;37.280;-121.948;2023-11-18T05:20:04;3.20;;;1.50;;
82635;SDS011;72317;37.280;-121.948;2023-11-18T05:22:34;2.67;;;1.60;;
82635;SDS011;72317;37.280;-121.948;2023-11-18T05:25:02;2.05;;;1.50;;
82635;SDS011;72317;37.280;-121.948;2023-11-18T05:27:30;3.30;;;1.83;;
82635;SDS011;72317;37.280;-121.948;2023-11-18T05:29:57;3.63;;;1.50;;
82635;SDS011;72317;37.280;-121.948;2023-11-18T05:32:28;4.13;;;1.27;;
82635;SDS011;72317;37.280;-121.948;2023-11-18T05:34:55;1.20;;;0.90;;
82635;SDS011;72317;37.280;-121.948;2023-11-18T05:37:23;1.27;;;0.90;;
82635;SDS011;72317;37.280;-121.948;2023-11-18T05:39:50;1.85;;;0.75;;
82635;SDS011;72317;37.280;-121.948;2023-11-18T05:42:24;4.68;;;0.90;;
82635;SDS011;72317;37.280;-121.948;2023-11-18T05:44:51;1.77;;;0.80;;
82635;SDS011;72317;37.280;-121.948;2023-11-18T05:47:24;2.58;;;0.90;;
82635;SDS011;72317;37.280;-121.948;2023-11-18T05:49:54;1.88;;;0.77;;
82635;SDS011;72317;37.280;-121.948;2023-11-18T05:52:21;2.58;;;1.00;;
82635;SDS011;72317;37.280;-121.948;2023-11-18T05:54:47;2.25;;;0.95;;
82635;SDS011;72317;37.280;-121.948;2023-11-18T05:57:17;2.22;;;1.10;;
82635;SDS011;72317;37.280;-121.948;2023-11-18T05:59:44;2.30;;;1.10;;
82635;SDS011;72317;37.280;-121.948;2023-11-18T06:02:13;4.00;;;1.27;;
82635;SDS011;72317;37.280;-121.948;2023-11-18T06:04:43;2.08;;;0.88;;
82635;SDS011;72317;37.280;-121.948;2023-11-18T06:07:12;3.20;;;0.80;;
82635;SDS011;72317;37.280;-121.948;2023-11-18T06:09:39;2.03;;;1.20;;
82635;SDS011;72317;37.280;-121.948;2023-11-18T06:12:07;1.55;;;0.77;;
82635;SDS011;72317;37.280;-121.948;2023-11-18T06:14:38;2.08;;;0.90;;
82635;SDS011;72317;37.280;-121.948;2023-11-18T06:17:04;1.10;;;0.70;;
82635;SDS011;72317;37.280;-121.948;2023-11-18T06:19:33;1.85;;;0.60;;
82635;SDS011;72317;37.280;-121.948;2023-11-18T06:22:00;1.23;;;0.60;;
82635;SDS011;72317;37.280;-121.948;2023-11-18T06:24:26;1.50;;;0.60;;
82635;SDS011;72317;37.280;-121.948;2023-11-18T06:26:53;1.45;;;0.60;;
82635;SDS011;72317;37.280;-121.948;2023-11-18T06:29:20;1.90;;;0.65;;
82635;SDS011;72317;37.280;-121.948;2023-11-18T06:31:46;1.90;;;0.55;;
82635;SDS011;72317;37.280;-121.948;2023-11-18T06:34:12;0.60;;;0.60;;
82635;SDS011;72317;37.280;-121.948;2023-11-18T06:36:38;2.38;;;0.60;;
82635;SDS011;72317;37.280;-121.948;2023-11-18T06:39:04;0.82;;;0.50;;
82635;SDS011;72317;37.280;-121.948;2023-11-18T06:41:33;1.50;;;0.57;;
82635;SDS011;72317;37.280;-121.948;2023-11-18T06:44:00;0.60;;;0.60;;
82635;SDS011;72317;37.280;-121.948;2023-11-18T06:46:34;2.00;;;0.70;;
82635;SDS011;72317;37.280;-121.948;2023-11-18T06:49:02;0.85;;;0.70;;
82635;SDS011;72317;37.280;-121.948;2023-11-18T06:51:40;1.75;;;0.60;;
82635;SDS011;72317;37.280;-121.948;2023-11-18T06:54:07;1.02;;;0.80;;
82635;SDS011;72317;37.280;-121.948;2023-11-18T06:56:42;2.05;;;0.90;;
82635;SDS011;72317;37.280;-121.948;2023-11-18T06:59:09;3.22;;;1.15;;
82635;SDS011;72317;37.280;-121.948;2023-11-18T07:01:39;1.95;;;0.75;;
82635;SDS011;72317;37.280;-121.948;2023-11-18T07:04:07;1.15;;;0.90;;
82635;SDS011;72317;37.280;-121.948;2023-11-18T07:06:34;1.27;;;0.82;;
82635;SDS011;72317;37.280;-121.948;2023-11-18T07:09:04;1.77;;;1.05;;
82635;SDS011;72317;37.280;-121.948;2023-11-18T07:11:38;2.50;;;1.02;;
82635;SDS011;72317;37.280;-121.948;2023-11-18T07:14:07;2.38;;;1.10;;
82635;SDS011;72317;37.280;-121.948;2023-11-18T07:16:34;2.70;;;1.25;;
82635;SDS011;72317;37.280;-121.948;2023-11-18T07:19:01;1.38;;;0.82;;
82635;SDS011;72317;37.280;-121.948;2023-11-18T07:21:29;2.33;;;0.80;;
82635;SDS011;72317;37.280;-121.948;2023-11-18T07:23:55;2.40;;;0.90;;
82635;SDS011;72317;37.280;-121.948;2023-11-18T07:26:22;2.85;;;0.88;;
82635;SDS011;72317;37.280;-121.948;2023-11-18T07:28:49;1.50;;;0.90;;
82635;SDS011;72317;37.280;-121.948;2023-11-18T07:31:17;0.88;;;0.80;;
82635;SDS011;72317;37.280;-121.948;2023-11-18T07:33:44;1.40;;;0.90;;
82635;SDS011;72317;37.280;-121.948;2023-11-18T07:36:17;1.77;;;1.00;;
82635;SDS011;72317;37.280;-121.948;2023-11-18T07:38:46;2.38;;;0.90;;
82635;SDS011;72317;37.280;-121.948;2023-11-18T07:41:13;2.25;;;0.82;;
82635;SDS011;72317;37.280;-121.948;2023-11-18T07:43:55;1.60;;;0.82;;
82635;SDS011;72317;37.280;-121.948;2023-11-18T07:46:21;2.90;;;1.10;;
82635;SDS011;72317;37.280;-121.948;2023-11-18T07:48:48;2.67;;;0.90;;
82635;SDS011;72317;37.280;-121.948;2023-11-18T07:51:17;1.95;;;0.80;;
82635;SDS011;72317;37.280;-121.948;2023-11-18T07:53:47;1.00;;;0.90;;
82635;SDS011;72317;37.280;-121.948;2023-11-18T07:56:14;1.70;;;0.90;;
82635;SDS011;72317;37.280;-121.948;2023-11-18T07:58:44;0.73;;;0.73;;
82635;SDS011;72317;37.280;-121.948;2023-11-18T08:01:12;2.15;;;0.70;;
82635;SDS011;72317;37.280;-121.948;2023-11-18T08:03:39;1.35;;;0.73;;
82635;SDS011;72317;37.280;-121.948;2023-11-18T08:06:08;0.77;;;0.70;;
82635;SDS011;72317;37.280;-121.948;2023-11-18T08:08:37;1.35;;;0.80;;
82635;SDS011;72317;37.280;-121.948;2023-11-18T08:11:04;1.48;;;0.70;;
82635;SDS011;72317;37.280;-121.948;2023-11-18T08:13:31;2.30;;;0.88;;
82635;SDS011;72317;37.280;-121.948;2023-11-18T08:15:57;1.25;;;0.70;;
82635;SDS011;72317;37.280;-121.948;2023-11-18T08:18:23;1.05;;;0.70;;
82635;SDS011;72317;37.280;-121.948;2023-11-18T08:20:50;0.85;;;0.65;;
82635;SDS011;72317;37.280;-121.948;2023-11-18T08:23:16;1.77;;;0.68;;
82635;SDS011;72317;37.280;-121.948;2023-11-18T08:25:44;1.25;;;0.73;;
82635;SDS011;72317;37.280;-121.948;2023-11-18T08:28:11;1.67;;;0.70;;
82635;SDS011;72317;37.280;-121.948;2023-11-18T08:30:39;2.70;;;0.88;;
82635;SDS011;72317;37.280;-121.948;2023-11-18T08:33:05;1.65;;;0.85;;
82635;SDS011;72317;37.280;-121.948;2023-11-18T08:35:37;3.10;;;0.80;;
82635;SDS011;72317;37.280;-121.948;2023-11-18T08:38:03;2.72;;;0.90;;
82635;SDS011;72317;37.280;-121.948;2023-11-18T08:40:32;1.70;;;0.70;;
82635;SDS011;72317;37.280;-121.948;2023-11-18T08:42:59;4.45;;;0.88;;
82635;SDS011;72317;37.280;-121.948;2023-11-18T08:45:27;1.50;;;0.77;;
82635;SDS011;72317;37.280;-121.948;2023-11-18T08:47:59;1.17;;;0.70;;
82635;SDS011;72317;37.280;-121.948;2023-11-18T08:50:36;2.08;;;0.82;;
82635;SDS011;72317;37.280;-121.948;2023-11-18T08:53:05;0.88;;;0.70;;
82635;SDS011;72317;37.280;-121.948;2023-11-18T08:55:34;1.35;;;0.70;;
82635;SDS011;72317;37.280;-121.948;2023-11-18T08:58:04;1.70;;;0.77;;
82635;SDS011;72317;37.280;-121.948;2023-11-18T09:00:43;0.82;;;0.65;;
82635;SDS011;72317;37.280;-121.948;2023-11-18T09:05:59;1.63;;;0.90;;
82635;SDS011;72317;37.280;-121.948;2023-11-18T09:08:43;1.98;;;0.80;;
82635;SDS011;72317;37.280;-121.948;2023-11-18T09:11:11;2.13;;;1.02;;
82635;SDS011;72317;37.280;-121.948;2023-11-18T09:13:48;1.10;;;1.00;;
82635;SDS011;72317;37.280;-121.948;2023-11-18T09:16:19;1.60;;;0.80;;
82635;SDS011;72317;37.280;-121.948;2023-11-18T09:18:52;1.55;;;1.05;;
82635;SDS011;72317;37.280;-121.948;2023-11-18T09:21:18;1.50;;;1.00;;
82635;SDS011;72317;37.280;-121.948;2023-11-18T09:23:54;2.50;;;0.70;;
82635;SDS011;72317;37.280;-121.948;2023-11-18T09:26:23;1.38;;;0.88;;
82635;SDS011;72317;37.280;-121.948;2023-11-18T09:28:51;1.70;;;0.80;;
82635;SDS011;72317;37.280;-121.948;2023-11-18T09:31:17;1.60;;;0.80;;
82635;SDS011;72317;37.280;-121.948;2023-11-18T09:33:43;0.98;;;0.80;;
82635;SDS011;72317;37.280;-121.948;2023-11-18T09:36:17;2.00;;;1.00;;
82635;SDS011;72317;37.280;-121.948;2023-11-18T09:38:44;1.60;;;0.90;;
82635;SDS011;72317;37.280;-121.948;2023-11-18T09:41:15;2.35;;;0.90;;
82635;SDS011;72317;37.280;-121.948;2023-11-18T09:43:44;1.13;;;0.93;;
82635;SDS011;72317;37.280;-121.948;2023-11-18T09:46:13;1.63;;;0.90;;
82635;SDS011;72317;37.280;-121.948;2023-11-18T09:48:51;1.45;;;0.85;;
82635;SDS011;72317;37.280;-121.948;2023-11-18T09:51:39;3.80;;;1.08;;
82635;SDS011;72317;37.280;-121.948;2023-11-18T09:54:50;1.20;;;1.08;;
82635;SDS011;72317;37.280;-121.948;2023-11-18T10:00:03;1.30;;;0.93;;
82635;SDS011;72317;37.280;-121.948;2023-11-18T10:02:49;1.67;;;0.90;;
82635;SDS011;72317;37.280;-121.948;2023-11-18T10:05:15;1.58;;;0.90;;
82635;SDS011;72317;37.280;-121.948;2023-11-18T10:07:49;1.10;;;0.80;;
82635;SDS011;72317;37.280;-121.948;2023-11-18T10:10:17;1.92;;;0.75;;
82635;SDS011;72317;37.280;-121.948;2023-11-18T10:12:49;1.45;;;0.90;;
82635;SDS011;72317;37.280;-121.948;2023-11-18T10:15:23;1.90;;;0.90;;
82635;SDS011;72317;37.280;-121.948;2023-11-18T10:17:53;1.85;;;0.90;;
82635;SDS011;72317;37.280;-121.948;2023-11-18T10:20:44;0.82;;;0.60;;
82635;SDS011;72317;37.280;-121.948;2023-11-18T10:23:12;2.15;;;0.80;;
82635;SDS011;72317;37.280;-121.948;2023-11-18T10:25:48;2.30;;;0.70;;
82635;SDS011;72317;37.280;-121.948;2023-11-18T10:28:21;1.70;;;0.68;;
82635;SDS011;72317;37.280;-121.948;2023-11-18T10:30:57;0.77;;;0.70;;
82635;SDS011;72317;37.280;-121.948;2023-11-18T10:33:29;2.25;;;0.60;;
82635;SDS011;72317;37.280;-121.948;2023-11-18T10:35:56;2.25;;;0.80;;
82635;SDS011;72317;37.280;-121.948;2023-11-18T10:38:23;1.42;;;0.60;;
82635;SDS011;72317;37.280;-121.948;2023-11-18T10:40:58;1.05;;;0.40;;
82635;SDS011;72317;37.280;-121.948;2023-11-18T10:43:27;1.45;;;0.55;;
82635;SDS011;72317;37.280;-121.948;2023-11-18T10:46:08;1.40;;;0.73;;
82635;SDS011;72317;37.280;-121.948;2023-11-18T10:48:45;3.15;;;0.90;;
82635;SDS011;72317;37.280;-121.948;2023-11-18T10:51:16;2.33;;;0.60;;
82635;SDS011;72317;37.280;-121.948;2023-11-18T10:53:52;2.15;;;0.70;;
82635;SDS011;72317;37.280;-121.948;2023-11-18T10:56:22;1.45;;;0.60;;
82635;SDS011;72317;37.280;-121.948;2023-11-18T10:58:58;1.27;;;0.60;;
82635;SDS011;72317;37.280;-121.948;2023-11-18T11:01:35;2.53;;;0.70;;
82635;SDS011;72317;37.280;-121.948;2023-11-18T11:04:14;1.05;;;0.70;;
82635;SDS011;72317;37.280;-121.948;2023-11-18T11:06:50;0.90;;;0.47;;
82635;SDS011;72317;37.280;-121.948;2023-11-18T11:09:25;1.65;;;0.60;;
82635;SDS011;72317;37.280;-121.948;2023-11-18T11:12:02;0.82;;;0.50;;
82635;SDS011;72317;37.280;-121.948;2023-11-18T11:14:42;1.15;;;0.60;;
82635;SDS011;72317;37.280;-121.948;2023-11-18T11:17:16;2.35;;;0.70;;
82635;SDS011;72317;37.280;-121.948;2023-11-18T11:20:07;2.05;;;0.70;;
82635;SDS011;72317;37.280;-121.948;2023-11-18T11:22:47;1.55;;;0.60;;
82635;SDS011;72317;37.280;-121.948;2023-11-18T11:25:28;2.40;;;0.60;;
82635;SDS011;72317;37.280;-121.948;2023-11-18T11:28:21;2.03;;;0.52;;
82635;SDS011;72317;37.280;-121.948;2023-11-18T11:33:43;3.25;;;0.75;;
82635;SDS011;72317;37.280;-121.948;2023-11-18T11:36:15;2.67;;;0.70;;
82635;SDS011;72317;37.280;-121.948;2023-11-18T11:38:49;2.13;;;0.65;;
82635;SDS011;72317;37.280;-121.948;2023-11-18T11:41:18;2.42;;;0.60;;
82635;SDS011;72317;37.280;-121.948;2023-11-18T11:43:52;1.00;;;0.57;;
82635;SDS011;72317;37.280;-121.948;2023-11-18T11:46:26;2.13;;;0.60;;
82635;SDS011;72317;37.280;-121.948;2023-11-18T11:48:59;2.03;;;0.60;;
82635;SDS011;72317;37.280;-121.948;2023-11-18T11:51:38;3.78;;;0.60;;
82635;SDS011;72317;37.280;-121.948;2023-11-18T11:54:10;1.20;;;0.60;;
82635;SDS011;72317;37.280;-121.948;2023-11-18T11:56:45;3.33;;;0.70;;
82635;SDS011;72317;37.280;-121.948;2023-11-18T11:59:15;1.85;;;0.50;;
82635;SDS011;72317;37.280;-121.948;2023-11-18T12:01:42;1.73;;;0.50;;
82635;SDS011;72317;37.280;-121.948;2023-11-18T12:04:14;1.13;;;0.68;;
82635;SDS011;72317;37.280;-121.948;2023-11-18T12:06:47;3.50;;;0.95;;
82635;SDS011;72317;37.280;-121.948;2023-11-18T12:09:35;3.33;;;0.80;;
82635;SDS011;72317;37.280;-121.948;2023-11-18T12:12:05;2.65;;;0.73;;
82635;SDS011;72317;37.280;-121.948;2023-11-18T12:14:54;4.78;;;1.27;;
82635;SDS011;72317;37.280;-121.948;2023-11-18T12:23:19;4.95;;;1.50;;
82635;SDS011;72317;37.280;-121.948;2023-11-18T12:25:52;7.65;;;1.75;;
82635;SDS011;72317;37.280;-121.948;2023-11-18T12:28:26;4.60;;;1.42;;
82635;SDS011;72317;37.280;-121.948;2023-11-18T12:30:56;5.95;;;1.75;;
82635;SDS011;72317;37.280;-121.948;2023-11-18T12:33:24;7.15;;;1.35;;
82635;SDS011;72317;37.280;-121.948;2023-11-18T12:48:06;6.88;;;1.42;;
82635;SDS011;72317;37.280;-121.948;2023-11-18T12:50:43;3.95;;;1.60;;
82635;SDS011;72317;37.280;-121.948;2023-11-18T12:53:11;3.72;;;1.25;;
82635;SDS011;72317;37.280;-121.948;2023-11-18T12:55:40;3.63;;;1.27;;
82635;SDS011;72317;37.280;-121.948;2023-11-18T12:58:07;4.30;;;1.23;;
82635;SDS011;72317;37.280;-121.948;2023-11-18T13:00:33;3.95;;;1.27;;
82635;SDS011;72317;37.280;-121.948;2023-11-18T13:03:01;4.85;;;1.42;;
82635;SDS011;72317;37.280;-121.948;2023-11-18T13:05:27;3.28;;;1.20;;
82635;SDS011;72317;37.280;-121.948;2023-11-18T13:07:58;3.55;;;1.20;;
82635;SDS011;72317;37.280;-121.948;2023-11-18T13:10:26;4.18;;;1.40;;
82635;SDS011;72317;37.280;-121.948;2023-11-18T13:12:53;6.95;;;1.67;;
82635;SDS011;72317;37.280;-121.948;2023-11-18T13:15:20;3.25;;;1.40;;
82635;SDS011;72317;37.280;-121.948;2023-11-18T13:18:02;6.40;;;1.55;;
82635;SDS011;72317;37.280;-121.948;2023-11-18T13:20:33;5.80;;;1.55;;
82635;SDS011;72317;37.280;-121.948;2023-11-18T13:23:01;5.07;;;1.60;;
82635;SDS011;72317;37.280;-121.948;2023-11-18T13:25:36;5.05;;;1.70;;
82635;SDS011;72317;37.280;-121.948;2023-11-18T13:28:09;2.58;;;1.27;;
82635;SDS011;72317;37.280;-121.948;2023-11-18T13:30:36;4.25;;;1.40;;
82635;SDS011;72317;37.280;-121.948;2023-11-18T13:33:04;4.25;;;1.48;;
82635;SDS011;72317;37.280;-121.948;2023-11-18T13:35:30;5.75;;;1.63;;
82635;SDS011;72317;37.280;-121.948;2023-11-18T13:37:56;5.22;;;1.80;;
82635;SDS011;72317;37.280;-121.948;2023-11-18T13:40:23;5.15;;;1.95;;
82635;SDS011;72317;37.280;-121.948;2023-11-18T13:43:11;2.85;;;1.65;;
82635;SDS011;72317;37.280;-121.948;2023-11-18T13:45:36;3.97;;;1.85;;
82635;SDS011;72317;37.280;-121.948;2023-11-18T13:48:04;3.92;;;1.58;;
82635;SDS011;72317;37.280;-121.948;2023-11-18T13:50:33;2.97;;;1.70;;
82635;SDS011;72317;37.280;-121.948;2023-11-18T13:53:03;6.18;;;2.40;;
82635;SDS011;72317;37.280;-121.948;2023-11-18T13:55:31;4.78;;;1.90;;
82635;SDS011;72317;37.280;-121.948;2023-11-18T13:57:57;4.55;;;1.50;;
82635;SDS011;72317;37.280;-121.948;2023-11-18T14:00:24;4.60;;;1.73;;
82635;SDS011;72317;37.280;-121.948;2023-11-18T14:02:55;5.35;;;1.60;;
82635;SDS011;72317;37.280;-121.948;2023-11-18T14:05:22;3.58;;;1.50;;
82635;SDS011;72317;37.280;-121.948;2023-11-18T14:07:52;4.78;;;1.45;;
82635;SDS011;72317;37.280;-121.948;2023-11-18T14:10:24;4.32;;;1.60;;
82635;SDS011;72317;37.280;-121.948;2023-11-18T14:13:01;4.57;;;1.63;;
82635;SDS011;72317;37.280;-121.948;2023-11-18T14:15:31;3.22;;;1.45;;
82635;SDS011;72317;37.280;-121.948;2023-11-18T14:18:01;3.90;;;1.70;;
82635;SDS011;72317;37.280;-121.948;2023-11-18T14:20:27;4.95;;;1.60;;
82635;SDS011;72317;37.280;-121.948;2023-11-18T14:22:56;2.85;;;1.23;;
82635;SDS011;72317;37.280;-121.948;2023-11-18T14:25:27;3.35;;;1.35;;
82635;SDS011;72317;37.280;-121.948;2023-11-18T14:27:53;3.53;;;1.40;;
82635;SDS011;72317;37.280;-121.948;2023-11-18T14:30:19;3.55;;;1.30;;
82635;SDS011;72317;37.280;-121.948;2023-11-18T14:32:45;3.63;;;1.40;;
82635;SDS011;72317;37.280;-121.948;2023-11-18T14:35:15;4.75;;;1.50;;
82635;SDS011;72317;37.280;-121.948;2023-11-18T14:37:43;7.60;;;2.03;;
82635;SDS011;72317;37.280;-121.948;2023-11-18T14:40:10;4.40;;;1.50;;
82635;SDS011;72317;37.280;-121.948;2023-11-18T14:42:44;3.55;;;1.50;;
82635;SDS011;72317;37.280;-121.948;2023-11-18T14:45:14;5.60;;;1.83;;
82635;SDS011;72317;37.280;-121.948;2023-11-18T14:47:42;4.38;;;1.80;;
82635;SDS011;72317;37.280;-121.948;2023-11-18T14:50:19;5.32;;;1.70;;
82635;SDS011;72317;37.280;-121.948;2023-11-18T14:52:49;3.70;;;1.63;;
82635;SDS011;72317;37.280;-121.948;2023-11-18T14:55:28;5.93;;;1.73;;